EGNX - East Midlands
Distance from station: E 5mi, 14km
Updated: 10/18/2017 2:50pm
Fog, Overcast
Fog, Overcast
 Wind from SE
Wind: SE 5 mph , 7 km/h
Temperature: 52°F , 11°C
Dew Point: 52°F , 11°C
Humidity: 100%
Barometer: 29.8 inHg , 1009 hPa
Summary: Fog
Clouds: Overcast
Visibility: 0 mile , 1 km
Cloud details: Overcast 100 ft
2017/10/18 21:50 EGNX 182150Z 13004KT 090V180 0800 R27/P1500 FG OVC001 11/11 Q1009